createdAt,value
2022-12-04T00:01:31.192Z,16.40
2022-12-04T00:05:35.653Z,17.60
2022-12-04T00:09:38.980Z,18.00
2022-12-04T00:13:42.282Z,18.33
2022-12-04T00:17:48.593Z,17.63
2022-12-04T00:21:53.904Z,18.63
2022-12-04T00:26:01.552Z,18.83
2022-12-04T00:30:05.402Z,15.73
2022-12-04T00:34:08.571Z,14.77
2022-12-04T00:38:13.038Z,17.07
2022-12-04T00:42:16.084Z,14.63
2022-12-04T00:46:19.593Z,14.83
2022-12-04T00:50:23.129Z,16.23
2022-12-04T00:54:27.625Z,16.53
2022-12-04T00:58:30.661Z,15.03
2022-12-04T01:02:33.907Z,17.27
2022-12-04T01:06:37.028Z,12.90
2022-12-04T01:10:42.983Z,16.13
2022-12-04T01:14:46.289Z,13.90
2022-12-04T01:18:50.144Z,11.10
2022-12-04T01:22:53.214Z,17.80
2022-12-04T01:26:57.673Z,15.30
2022-12-04T01:31:02.302Z,16.63
2022-12-04T01:35:06.318Z,16.27
2022-12-04T01:39:09.414Z,16.07
2022-12-04T01:43:14.551Z,17.03
2022-12-04T01:47:17.744Z,9.80
2022-12-04T01:51:24.171Z,14.83
2022-12-04T01:55:27.385Z,18.33
2022-12-04T01:59:36.539Z,13.83
2022-12-04T02:03:40.624Z,14.03
2022-12-04T02:07:45.582Z,14.57
2022-12-04T02:11:53.801Z,17.80
2022-12-04T02:16:07.633Z,18.07
2022-12-04T02:20:29.929Z,16.73
2022-12-04T02:24:50.017Z,18.27
2022-12-04T02:28:58.877Z,16.40
2022-12-04T02:33:07.138Z,15.57
2022-12-04T02:37:14.093Z,16.03
2022-12-04T02:41:26.638Z,16.43
2022-12-04T02:45:34.915Z,21.23
2022-12-04T02:49:43.717Z,15.70
2022-12-04T02:53:50.881Z,19.47
2022-12-04T02:57:59.039Z,23.33
2022-12-04T03:02:08.984Z,17.27
2022-12-04T03:06:15.365Z,17.30
2022-12-04T03:10:27.758Z,12.97
2022-12-04T03:14:33.532Z,14.67
2022-12-04T03:18:43.389Z,11.97
2022-12-04T03:22:51.694Z,16.33
2022-12-04T03:27:01.355Z,18.23
2022-12-04T03:31:08.336Z,15.20
2022-12-04T03:35:20.235Z,15.77
2022-12-04T03:39:27.815Z,20.90
2022-12-04T03:43:37.136Z,18.00
2022-12-04T03:47:44.416Z,16.53
2022-12-04T03:51:56.218Z,16.00
2022-12-04T03:56:04.776Z,12.27
2022-12-04T04:00:12.081Z,10.57
2022-12-04T04:04:17.429Z,15.30
2022-12-04T04:08:34.025Z,17.87
2022-12-04T04:12:41.736Z,11.20
2022-12-04T04:17:06.681Z,15.30
2022-12-04T04:21:27.121Z,13.97
2022-12-04T04:25:32.694Z,14.40
2022-12-04T04:29:36.007Z,15.07
2022-12-04T04:33:48.666Z,16.13
2022-12-04T04:37:58.917Z,18.60
2022-12-04T04:42:12.687Z,19.00
2022-12-04T04:46:21.051Z,17.83
2022-12-04T04:50:24.879Z,17.10
2022-12-04T04:54:30.959Z,18.30
2022-12-04T04:58:35.523Z,17.70
2022-12-04T05:02:38.741Z,17.43
2022-12-04T05:06:41.948Z,17.53
2022-12-04T05:10:45.005Z,12.13
2022-12-04T05:14:49.778Z,15.03
2022-12-04T05:19:10.268Z,16.67
2022-12-04T05:23:13.458Z,20.63
2022-12-04T05:27:16.756Z,15.37
2022-12-04T05:31:21.221Z,12.90
2022-12-04T05:35:24.333Z,17.00
2022-12-04T05:39:27.454Z,17.90
2022-12-04T05:43:31.002Z,16.70
2022-12-04T05:47:39.565Z,18.70
2022-12-04T05:51:42.675Z,20.27
2022-12-04T05:55:45.712Z,19.40
2022-12-04T05:59:48.857Z,18.03
2022-12-04T06:03:53.867Z,17.53
2022-12-04T06:07:56.970Z,16.73
2022-12-04T06:12:00.479Z,13.90
2022-12-04T06:16:03.585Z,18.43
2022-12-04T06:20:11.714Z,16.53
2022-12-04T06:24:17.262Z,16.17
2022-12-04T06:28:20.343Z,17.73
2022-12-04T06:32:23.421Z,16.43
2022-12-04T06:36:28.034Z,20.07
2022-12-04T06:40:31.453Z,17.60
2022-12-04T06:44:34.738Z,17.00
2022-12-04T06:48:38.472Z,18.03
2022-12-04T06:52:42.945Z,19.23
2022-12-04T06:56:46.357Z,22.53
2022-12-04T07:00:51.147Z,15.00
2022-12-04T07:04:57.537Z,19.20
2022-12-04T07:09:05.017Z,12.43
2022-12-04T07:13:08.981Z,17.63
2022-12-04T07:17:12.535Z,14.93
2022-12-04T07:21:19.299Z,13.33
2022-12-04T07:25:24.113Z,17.23
2022-12-04T07:29:27.356Z,17.33
2022-12-04T07:33:30.969Z,19.67
2022-12-04T07:38:25.502Z,17.43
2022-12-04T07:43:04.096Z,17.80
2022-12-04T07:48:01.277Z,18.33
2022-12-04T07:52:19.462Z,13.53
2022-12-04T07:56:56.598Z,19.70
2022-12-04T08:01:34.836Z,11.00
2022-12-04T08:06:08.989Z,18.40
2022-12-04T08:10:46.112Z,15.93
2022-12-04T08:15:22.761Z,15.97
2022-12-04T08:20:09.421Z,18.47
2022-12-04T08:24:38.698Z,13.50
2022-12-04T08:28:42.558Z,21.13
2022-12-04T08:32:45.795Z,15.47
2022-12-04T08:37:23.889Z,17.83
2022-12-04T08:41:57.746Z,16.27
2022-12-04T08:46:34.740Z,15.73
2022-12-04T08:51:08.952Z,14.13
2022-12-04T08:55:47.465Z,16.70
2022-12-04T08:59:50.444Z,20.73
2022-12-04T09:03:53.847Z,17.13
2022-12-04T09:07:57.114Z,16.40
2022-12-04T09:12:35.641Z,13.27
2022-12-04T09:17:12.506Z,16.67
2022-12-04T09:21:49.650Z,16.53
2022-12-04T09:26:27.441Z,16.13
2022-12-04T09:31:06.905Z,15.67
2022-12-04T09:35:40.742Z,12.10
2022-12-04T09:40:23.800Z,14.40
2022-12-04T09:44:54.346Z,16.37
2022-12-04T09:49:03.337Z,15.57
2022-12-04T09:53:34.744Z,15.33
2022-12-04T09:58:13.797Z,12.27
2022-12-04T10:02:52.664Z,11.97
2022-12-04T10:07:30.231Z,13.67
2022-12-04T10:12:11.595Z,12.47
2022-12-04T10:16:44.764Z,13.73
2022-12-04T10:21:30.494Z,11.47
2022-12-04T10:25:38.072Z,16.40
2022-12-04T10:29:44.028Z,18.03
2022-12-04T10:34:20.301Z,14.53
2022-12-04T10:38:32.250Z,15.07
2022-12-04T10:42:42.521Z,15.63
2022-12-04T10:47:13.595Z,17.13
2022-12-04T10:51:47.812Z,10.30
2022-12-04T10:55:50.869Z,14.83
2022-12-04T10:59:57.168Z,15.67
2022-12-04T11:04:03.926Z,15.80
2022-12-04T11:08:08.758Z,14.23
2022-12-04T11:12:19.969Z,16.90
2022-12-04T11:16:35.470Z,15.57
2022-12-04T11:21:01.587Z,14.80
2022-12-04T11:25:04.748Z,16.20
2022-12-04T11:29:13.575Z,15.87
2022-12-04T11:33:23.156Z,18.67
2022-12-04T11:37:28.337Z,13.13
2022-12-04T11:41:33.592Z,16.60
2022-12-04T11:45:36.648Z,18.40
2022-12-04T11:49:43.950Z,15.83
2022-12-04T11:54:24.076Z,18.57
2022-12-04T11:58:46.550Z,16.80
2022-12-04T12:03:27.685Z,16.30
2022-12-04T12:07:44.568Z,17.53
2022-12-04T12:12:10.333Z,15.40
2022-12-04T12:16:21.237Z,16.80
2022-12-04T12:20:55.021Z,15.30
2022-12-04T12:25:07.147Z,16.53
2022-12-04T12:29:40.434Z,17.10
2022-12-04T12:33:48.940Z,18.50
2022-12-04T12:37:54.758Z,14.37
2022-12-04T12:42:02.297Z,18.33
2022-12-04T12:46:36.205Z,15.53
2022-12-04T12:51:29.632Z,15.97
2022-12-04T12:55:38.095Z,15.88
2022-12-04T13:00:15.727Z,15.27
2022-12-04T13:04:46.683Z,13.97
2022-12-04T13:09:25.577Z,13.90
2022-12-04T13:13:39.150Z,20.33
2022-12-04T13:17:45.484Z,15.90
2022-12-04T13:22:24.505Z,14.50
2022-12-04T13:26:49.040Z,16.53
2022-12-04T13:30:58.601Z,16.13
2022-12-04T13:35:38.794Z,17.37
2022-12-04T13:40:06.021Z,16.33
2022-12-04T13:44:19.524Z,15.60
2022-12-04T13:48:44.145Z,17.80
2022-12-04T13:53:37.460Z,12.77
2022-12-04T13:58:01.529Z,18.07
2022-12-04T14:02:37.900Z,12.10
2022-12-04T14:07:35.831Z,15.73
2022-12-04T14:12:14.892Z,17.53
2022-12-04T14:16:48.726Z,19.80
2022-12-04T14:21:28.288Z,14.03
2022-12-04T14:26:03.297Z,19.17
2022-12-04T14:30:37.261Z,16.20
2022-12-04T14:35:15.184Z,14.40
2022-12-04T14:39:54.104Z,19.40
2022-12-04T14:44:24.573Z,15.50
2022-12-04T14:49:08.017Z,17.00
2022-12-04T14:53:24.132Z,17.70
2022-12-04T14:57:53.893Z,20.53
2022-12-04T15:01:57.398Z,19.47
2022-12-04T15:06:05.116Z,17.30
2022-12-04T15:10:38.087Z,20.03
2022-12-04T15:14:44.031Z,19.40
2022-12-04T15:19:18.112Z,18.03
2022-12-04T15:23:26.298Z,17.00
2022-12-04T15:27:32.705Z,19.83
2022-12-04T15:31:43.463Z,17.03
2022-12-04T15:36:15.733Z,19.13
2022-12-04T15:40:23.314Z,18.27
2022-12-04T15:44:29.402Z,20.40
2022-12-04T15:49:09.084Z,16.27
2022-12-04T15:53:18.047Z,17.27
2022-12-04T15:57:52.453Z,21.40
2022-12-04T16:01:55.814Z,17.23
2022-12-04T16:06:16.177Z,16.07
2022-12-04T16:10:23.541Z,16.00
2022-12-04T16:14:27.212Z,18.90
2022-12-04T16:18:30.395Z,18.47
2022-12-04T16:22:34.822Z,18.27
2022-12-04T16:27:12.656Z,18.60
2022-12-04T16:31:16.289Z,17.60
2022-12-04T16:35:19.445Z,17.17
2022-12-04T16:39:57.801Z,22.20
2022-12-04T16:44:37.017Z,12.90
2022-12-04T16:48:40.059Z,17.93
2022-12-04T16:53:17.946Z,12.33
2022-12-04T16:57:53.875Z,16.60
2022-12-04T17:02:27.927Z,19.90
2022-12-04T17:07:25.963Z,19.47
2022-12-04T17:12:02.767Z,17.57
2022-12-04T17:16:43.735Z,18.20
2022-12-04T17:20:47.003Z,17.27
2022-12-04T17:25:25.991Z,17.23
2022-12-04T17:29:29.159Z,12.10
2022-12-04T17:33:33.926Z,16.53
2022-12-04T17:37:38.602Z,16.47
2022-12-04T17:42:17.623Z,20.80
2022-12-04T17:46:24.657Z,18.47
2022-12-04T17:50:29.224Z,19.27
2022-12-04T17:54:32.762Z,23.87
2022-12-04T17:59:09.724Z,17.50
2022-12-04T18:03:12.949Z,23.23
2022-12-04T18:07:49.143Z,20.63
2022-12-04T18:11:52.289Z,18.93
2022-12-04T18:16:29.696Z,18.33
2022-12-04T18:21:07.761Z,18.97
2022-12-04T18:25:55.096Z,18.17
2022-12-04T18:30:19.587Z,21.17
2022-12-04T18:34:56.737Z,21.37
2022-12-04T18:39:33.342Z,20.13
2022-12-04T18:44:12.000Z,21.33
2022-12-04T18:48:46.699Z,18.13
2022-12-04T18:53:24.990Z,17.63
2022-12-04T18:57:58.803Z,20.27
2022-12-04T19:02:03.671Z,20.97
2022-12-04T19:06:07.672Z,18.40
2022-12-04T19:10:12.079Z,19.77
2022-12-04T19:14:46.218Z,25.87
2022-12-04T19:18:50.809Z,21.63
2022-12-04T19:22:53.849Z,22.57
2022-12-04T19:27:30.909Z,20.67
2022-12-04T19:31:36.723Z,24.83
2022-12-04T19:36:13.404Z,20.57
2022-12-04T19:40:17.279Z,22.43
2022-12-04T19:48:58.777Z,20.63
2022-12-04T19:53:03.231Z,18.77
2022-12-04T19:57:17.719Z,22.10
2022-12-04T20:01:51.440Z,22.10
2022-12-04T20:06:29.567Z,18.43
2022-12-04T20:11:05.450Z,24.73
2022-12-04T20:15:09.685Z,22.37
2022-12-04T20:19:46.587Z,20.03
2022-12-04T20:24:23.301Z,23.33
2022-12-04T20:29:01.969Z,23.87
2022-12-04T20:33:35.621Z,22.33
2022-12-04T20:38:13.539Z,24.03
2022-12-04T20:42:16.789Z,23.90
2022-12-04T20:46:25.572Z,24.13
2022-12-04T20:50:56.391Z,21.70
2022-12-04T20:55:33.451Z,24.27
2022-12-04T21:00:10.901Z,25.27
2022-12-04T21:04:18.080Z,23.27
2022-12-04T21:08:57.017Z,21.87
2022-12-04T21:13:55.364Z,22.13
2022-12-04T21:18:01.701Z,25.23
2022-12-04T21:22:06.667Z,26.37
2022-12-04T21:26:09.813Z,24.10
2022-12-04T21:30:13.880Z,23.77
2022-12-04T21:34:47.750Z,24.63
2022-12-04T21:38:52.809Z,24.47
2022-12-04T21:43:30.472Z,24.00
2022-12-04T21:48:07.521Z,24.37
2022-12-04T21:52:44.809Z,25.10
2022-12-04T21:56:49.352Z,22.03
2022-12-04T22:01:22.998Z,25.43
2022-12-04T22:06:01.267Z,25.57
2022-12-04T22:10:10.480Z,24.17
2022-12-04T22:14:40.235Z,23.27
2022-12-04T22:18:43.267Z,23.97
2022-12-04T22:22:46.482Z,25.33
2022-12-04T22:26:49.741Z,24.23
2022-12-04T22:30:54.199Z,25.88
2022-12-04T22:34:57.323Z,24.60
2022-12-04T22:39:34.727Z,24.13
2022-12-04T22:43:40.935Z,25.83
2022-12-04T22:47:45.866Z,24.97
2022-12-04T22:51:48.954Z,25.60
2022-12-04T22:55:51.946Z,25.37
2022-12-04T22:59:55.475Z,24.30
2022-12-04T23:04:34.631Z,24.43
2022-12-04T23:08:37.820Z,23.33
2022-12-04T23:13:14.433Z,23.17
2022-12-04T23:17:18.076Z,23.13
2022-12-04T23:21:57.037Z,22.93
2022-12-04T23:26:03.458Z,22.73
2022-12-04T23:30:08.120Z,22.10
2022-12-04T23:34:11.368Z,22.33
2022-12-04T23:38:49.845Z,22.30
2022-12-04T23:42:54.248Z,22.70
2022-12-04T23:46:59.296Z,21.03
2022-12-04T23:51:02.560Z,22.77
2022-12-04T23:55:09.076Z,24.30
2022-12-04T23:59:39.805Z,23.10
